Weather observations for the past three days for
Charleston Executive Airport
Imperial (Metric)
Date Time (edt) Wind (mph) Vis. (mi.) Weather Sky Cond. Temperature (ºF) Relative Humidity Wind Chill (°F) Heat Index (°F) Pressure Precipitation (in)
Air Dwpt 6 hour altimeter (in) sea level (mb) 1 hr 3 hr 6 hr
Max. Min.
01 16:35 SE 9 10.00 Fair CLR 87.8 75.2 66% 98 30.05 0.0
01 16:15 SE 9 10.00 Fair CLR 89.6 73.4 59% 98 30.04 0.0
01 15:55 SE 8 10.00 Fair CLR 89.6 73.4 59% 98 30.05 0.0
01 15:35 E 7 G 14 10.00 Fair CLR 89.6 73.4 59% 98 30.05 0.0
01 15:15 E 10 10.00 Fair CLR 87.8 75.2 66% 98 30.06 0.0
01 14:55 E 9 10.00 Fair CLR 87.8 75.2 66% 98 30.06 0.0
01 14:35 E 10 10.00 Fair CLR 87.8 75.2 66% 98 30.07 0.0
01 14:15 SE 9 10.00 Fair CLR 87.8 77 70% 100 30.08 0.0
01 13:55 E 8 10.00 Fair CLR 87.8 77 70% 100 30.08 0.0
01 13:35 E 8 10.00 Fair CLR 89.6 77 67% 103 30.08 0.0
01 13:15 E 8 10.00 Fair CLR 87.8 77 70% 100 30.09 0.0
01 12:55 Vrbl 5 10.00 Fair CLR 89.6 73.4 59% 98 30.09 0.0
01 12:35 NE 8 10.00 Fair CLR 89.6 71.6 55% 96 30.09 0.0
01 12:15 E 9 10.00 A Few Clouds FEW027 87.8 73.4 62% 96 30.1 0.0
01 11:55 Calm 10.00 Fair CLR 86 75.2 70% 95 30.1 0.0
01 11:35 Calm 10.00 Fair CLR 87.8 77 70% 100 30.1 0.0
01 11:15 Calm 10.00 Fair CLR 86 77 75% 97 30.11 0.0
01 10:55 N 5 10.00 A Few Clouds FEW017 86 75.2 70% 95 30.11 0.0
01 10:35 N 5 10.00 Fair CLR 84.2 77 79% 94 30.11 0.0
01 10:15 NE 8 10.00 Fair CLR 82.4 77 84% 91 30.1 0.0
01 09:55 N 9 10.00 A Few Clouds FEW009 82.4 78.8 89% 92 30.1 0.0
01 09:35 Calm 9.00 A Few Clouds FEW006 80.6 80.6 100% 89 30.1 0.0
01 09:15 N 8 4.00 Fog/Mist SCT005 78.8 78.8 100% 83 30.1 0.0
01 08:50 N 6 1.00 Fog/Mist OVC003 77 77 100% 78 30.1 0.0
01 08:35 N 7 0.50 Fog OVC002 77 77 100% 78 30.1 0.0
01 08:15 N 5 0.50 Fog OVC002 77 77 100% 78 30.09 0.0
01 07:55 N 5 0.25 Fog OVC002 77 77 100% 78 30.08 0.0
01 07:35 N 6 0.25 Fog OVC002 77 77 100% 78 30.08 0.0
01 07:15 N 3 0.15 Fog OVC002 77 77 100% 78 30.07 0.0
01 06:55 N 6 0.15 Fog OVC002 77 77 100% 78 30.07 0.0
01 06:35 N 5 0.25 Fog OVC002 77 77 100% 78 30.06 0.0
01 06:15 N 5 0.75 Fog/Mist OVC002 77 77 100% 78 30.06 0.0
01 05:55 Calm 2.50 Fog/Mist OVC003 77 77 100% 78 30.06 0.0
01 05:35 N 5 1.25 Fog/Mist OVC002 77 77 100% 78 30.05 0.0
01 05:15 Calm 2.50 Fog/Mist BKN002 77 77 100% 78 30.06 0.0
01 04:55 Calm 8.00 Fair CLR 77 77 100% 78 30.05 0.0
01 04:35 Calm 3.00 Fog/Mist CLR 75.2 75.2 100% 73 30.06 0.0
01 04:15 Calm 4.00 Fog/Mist CLR 75.2 75.2 100% 73 30.06 0.0
01 03:55 Calm 7.00 Fair CLR 77 77 100% 78 30.06 0.0
01 03:35 Calm 10.00 Fair CLR 77 77 100% 78 30.06 0.0
01 03:15 Calm 10.00 Fair CLR 77 77 100% 78 30.06 0.0
01 02:55 Calm 10.00 Fair CLR 77 77 100% 78 30.06 0.0
01 02:35 Calm 10.00 Fair CLR 77 77 100% 78 30.07 0.0
01 02:15 Calm 10.00 Fair CLR 77 77 100% 78 30.08 0.0
01 01:55 Calm 10.00 Fair CLR 77 77 100% 78 30.08 0.0
01 01:35 Calm 10.00 Fair CLR 75.2 75.2 100% 73 30.09 0.0
01 01:15 Calm 10.00 Fair CLR 77 77 100% 78 30.08 0.0
01 00:55 Calm 10.00 Fair CLR 77 77 100% 78 30.08 0.0
01 00:35 Calm 10.00 Fair CLR 77 77 100% 78 30.08 0.0
01 00:15 Calm 10.00 Fair CLR 77 77 100% 78 30.08 0.0
31 23:55 Calm 10.00 Fair CLR 77 77 100% 78 30.08 0.0
31 23:35 Calm 10.00 Fair CLR 78.8 78.8 100% 83 30.09 0.0
31 23:15 Calm 10.00 Fair CLR 78.8 77 94% 83 30.09 0.0
31 22:55 Calm 10.00 Fair CLR 78.8 78.8 100% 83 30.09 0.0
31 22:35 Calm 10.00 Fair CLR 78.8 78.8 100% 83 30.1 0.0
31 22:15 Calm 10.00 Fair CLR 78.8 77 94% 83 30.09 0.0
31 21:55 Calm 10.00 Fair CLR 78.8 77 94% 83 30.09 0.0
31 21:35 Calm 10.00 Fair CLR 78.8 77 94% 83 30.09 0.0
31 21:15 Calm 10.00 Fair CLR 78.8 77 94% 83 30.08 0.0
31 20:55 Calm 10.00 Fair CLR 78.8 77 94% 83 30.08 0.0
31 20:35 Calm 10.00 Fair CLR 80.6 77 89% 87 30.08 0.0
31 20:15 Calm 10.00 Fair CLR 80.6 77 89% 87 30.07 0.0
31 19:35 E 7 10.00 Fair CLR 82.4 77 84% 91 30.07 0.0
31 19:15 E 7 10.00 A Few Clouds FEW016 82.4 77 84% 91 30.07 0.0
31 18:55 E 9 10.00 Fair CLR 84.2 77 79% 94 30.06 0.0
31 18:35 E 8 10.00 Fair CLR 84.2 75.2 74% 92 30.06 0.0
31 18:15 E 8 10.00 Fair CLR 86 75.2 70% 95 30.06 0.0
31 17:55 E 8 10.00 Fair CLR 84.2 75.2 74% 92 30.07 0.0
31 17:35 E 6 10.00 Fair CLR 84.2 75.2 74% 92 30.07 0.0
31 17:15 E 7 10.00 Fair CLR 84.2 75.2 74% 92 30.06 0.0
31 16:50 E 9 10.00 Fair CLR 84.2 77 79% 94 30.06 0.0
31 16:35 Calm 10.00 Fair CLR 84.2 75.2 74% 92 30.06 0.0
31 16:15 Calm 10.00 Fair CLR 84.2 75.2 74% 92 30.06 0.0
31 15:55 E 7 10.00 Fair CLR 84.2 75.2 74% 92 30.07 0.0
31 15:35 E 7 10.00 Fair CLR 84.2 77 79% 94 30.07 0.0
31 15:15 E 7 10.00 Fair CLR 86 75.2 70% 95 30.08 0.0
31 14:55 E 7 10.00 Fair CLR 86 77 75% 97 30.09 0.0
31 14:35 Vrbl 5 10.00 Fair CLR 84.2 77 79% 94 30.1 0.0
31 14:15 SE 8 10.00 Fair CLR 86 77 75% 97 30.1 0.0
31 13:55 SE 7 10.00 Fair CLR 86 77 75% 97 30.11 0.0
31 13:35 Calm 10.00 Partly Cloudy FEW014 FEW022 SCT031 84.2 75.2 74% 92 30.12 0.0
31 13:15 SE 12 10.00 Partly Cloudy FEW014 SCT022 82.4 77 84% 91 30.13 0.0
31 12:55 E 10 10.00 Fair CLR 82.4 77 84% 91 30.14 0.0
31 12:35 E 10 10.00 Fair CLR 82.4 77 84% 91 30.14 0.0
31 12:15 E 9 10.00 Fair CLR 82.4 75.2 79% 89 30.14 0.0
31 11:55 E 8 10.00 Fair CLR 82.4 77 84% 91 30.15 0.0
31 11:35 E 8 10.00 Thunderstorm in Vicinity CLR 84.2 77 79% 94 30.14 0.0
31 11:15 E 5 10.00 Thunderstorm in Vicinity CLR 84.2 75.2 74% 92 30.13 0.0
31 10:55 NE 5 10.00 Fair CLR 84.2 75.2 74% 92 30.12 0.0
31 10:35 Calm 10.00 Fair CLR 84.2 75.2 74% 92 30.12 0.0
31 10:15 N 5 10.00 Fair CLR 82.4 75.2 79% 89 30.12 0.0
31 09:55 Calm 10.00 Thunderstorm in Vicinity CLR 82.4 75.2 79% 89 30.12 0.0
31 09:35 N 6 10.00 Fair CLR 82.4 75.2 79% 89 30.11 0.0
31 09:15 NE 8 10.00 Fair CLR 82.4 77 84% 91 30.11 0.0
31 08:55 N 6 10.00 Fair CLR 80.6 77 89% 87 30.11 0.0
31 08:35 N 6 10.00 Fair CLR 80.6 78.8 94% 88 30.1 0.0
31 08:15 N 3 10.00 Fair CLR 78.8 78.8 100% 83 30.1 0.0
31 07:55 Calm 10.00 Thunderstorm in Vicinity CLR 78.8 78.8 100% 83 30.1 0.0
31 07:35 Calm 6.00 Fog/Mist CLR 77 77 100% 78 30.09 0.0
31 07:15 Calm 5.00 Fog/Mist CLR 77 77 100% 78 30.09 0.0
31 06:55 Calm 6.00 Fog/Mist SCT005 77 77 100% 78 30.09 0.0
31 06:35 N 7 7.00 Mostly Cloudy BKN005 77 77 100% 78 30.09 0.0
31 06:15 N 6 7.00 Partly Cloudy SCT004 77 77 100% 78 30.08 0.0
31 05:55 N 7 8.00 Partly Cloudy SCT004 77 77 100% 78 30.08 0.0
31 05:35 N 7 7.00 Fair CLR 77 77 100% 78 30.08 0.0
31 05:15 Calm 6.00 Fog/Mist FEW016 FEW023 77 77 100% 78 30.08 0.0
31 04:55 Calm 8.00 Partly Cloudy SCT016 77 77 100% 78 30.08 0.0
31 04:35 Calm 10.00 Fair CLR 77 77 100% 78 30.07 0.0
31 04:15 Calm 10.00 A Few Clouds FEW005 FEW016 77 77 100% 78 30.07 0.0
31 03:55 Calm 10.00 Fair CLR 77 77 100% 78 30.07 0.0
31 03:35 Calm 10.00 Fair CLR 77 77 100% 78 30.07 0.0
31 03:15 Calm 10.00 Fair CLR 75.2 75.2 100% 73 30.08 0.0
31 02:55 Calm 10.00 Fair CLR 77 77 100% 78 30.08 0.0
31 02:35 Calm 10.00 Fair CLR 77 77 100% 78 30.08 0.0
31 02:15 Calm 10.00 Partly Cloudy SCT014 77 77 100% 78 30.08 0.0
31 01:55 Calm 10.00 A Few Clouds FEW014 77 77 100% 78 30.09 0.0
31 01:35 Calm 10.00 Fair CLR 77 77 100% 78 30.09 0.0
31 01:15 Calm 10.00 Fair CLR 77 77 100% 78 30.1 0.0
31 00:55 Calm 10.00 Fair CLR 77 77 100% 78 30.1 0.0
31 00:35 Calm 10.00 Fair CLR 77 77 100% 78 30.1 0.0
31 00:15 Calm 10.00 Fair CLR 77 77 100% 78 30.1 0.0
30 23:55 Calm 10.00 A Few Clouds FEW014 78.8 77 94% 83 30.1 0.0
30 23:35 Calm 10.00 A Few Clouds FEW015 78.8 77 94% 83 30.11 0.0
30 23:15 Calm 10.00 Fair CLR 78.8 77 94% 83 30.12 0.0
30 22:55 Calm 10.00 Fair CLR 78.8 77 94% 83 30.12 0.0
30 22:35 Calm 10.00 A Few Clouds FEW014 80.6 77 89% 87 30.12 0.0
30 22:15 Calm 10.00 A Few Clouds FEW015 80.6 77 89% 87 30.12 0.0
30 21:55 Calm 10.00 Fair CLR 80.6 77 89% 87 30.12 0.0
30 21:35 Calm 10.00 Partly Cloudy SCT016 80.6 77 89% 87 30.12 0.0
30 21:15 Calm 10.00 Overcast OVC015 80.6 77 89% 87 30.11 0.0
30 20:55 Calm 10.00 Partly Cloudy SCT014 80.6 77 89% 87 30.11 0.0
30 20:35 Calm 10.00 Fair CLR 80.6 77 89% 87 30.1 0.0
30 20:15 Calm 10.00 Fair CLR 80.6 77 89% 87 30.1 0.0
30 19:55 E 7 10.00 A Few Clouds FEW024 80.6 77 89% 87 30.09 0.0
30 19:35 E 5 10.00 A Few Clouds FEW024 82.4 77 84% 91 30.09 0.0
30 19:15 Calm 10.00 Fair CLR 82.4 77 84% 91 30.08 0.0
30 18:55 NE 5 10.00 Fair CLR 84.2 75.2 74% 92 30.08 0.0
30 18:35 NE 6 10.00 Fair CLR 84.2 75.2 74% 92 30.08 0.0
30 18:15 NE 7 10.00 A Few Clouds FEW023 84.2 75.2 74% 92 30.08 0.0
30 17:55 NE 7 10.00 A Few Clouds FEW024 84.2 75.2 74% 92 30.09 0.0
30 17:35 E 8 10.00 Fair CLR 86 73.4 66% 93 30.09 0.0
30 17:15 E 9 10.00 Fair CLR 84.2 73.4 70% 91 30.09 0.0
30 16:55 E 10 10.00 Fair CLR 86 73.4 66% 93 30.1 0.0
30 16:35 E 12 10.00 Partly Cloudy SCT019 86 75.2 70% 95 30.11 0.0
30 16:15 NE 7 10.00 Partly Cloudy SCT020 86 77 75% 97 30.12 0.0
30 15:55 E 9 10.00 Fair CLR 86 77 75% 97 30.11 0.0
30 15:35 E 12 10.00 Fair CLR 84.2 77 79% 94 30.12 0.0
30 15:15 E 9 10.00 Fair CLR 84.2 77 79% 94 30.12 0.0
30 14:55 E 10 10.00 Partly Cloudy FEW016 SCT030 SCT038 86 77 75% 97 30.12 0.0
30 14:35 E 12 10.00 Partly Cloudy FEW021 SCT031 SCT038 86 77 75% 97 30.13 0.0
30 14:15 E 7 G 14 10.00 A Few Clouds FEW021 86 77 75% 97 30.13 0.0
30 13:55 E 8 G 15 10.00 A Few Clouds FEW020 86 77 75% 97 30.14 0.0
30 13:35 E 6 G 14 10.00 A Few Clouds FEW019 86 75.2 70% 95 30.15 0.0
30 13:15 E 7 G 16 10.00 A Few Clouds FEW016 84.2 77 79% 94 30.14 0.0
30 12:55 E 15 10.00 Fair CLR 84.2 77 79% 94 30.14 0.0
30 12:35 E 10 10.00 Thunderstorm in Vicinity FEW041 FEW048 82.4 77 84% 91 30.17 0.0
30 12:15 Calm 10.00 Partly Cloudy SCT043 82.4 77 84% 91 30.17 0.0
30 11:55 E 8 10.00 Thunderstorm in Vicinity SCT044 80.6 77 89% 87 30.17 0.0
30 11:35 E 6 10.00 Fair CLR 82.4 75.2 79% 89 30.17 0.0
30 11:15 E 9 10.00 Fair CLR 82.4 75.2 79% 89 30.18 0.0
30 10:55 Calm 10.00 Fair CLR 84.2 75.2 74% 92 30.17 0.0
30 10:35 Calm 10.00 Fair CLR 84.2 75.2 74% 92 30.17 0.0
30 10:15 Vrbl 6 10.00 Thunderstorm in Vicinity CLR 84.2 77 79% 94 30.17 0.0
30 09:55 NE 7 10.00 Thunderstorm in Vicinity CLR 82.4 75.2 79% 89 30.16 0.0
30 09:35 Vrbl 7 10.00 Fair CLR 82.4 77 84% 91 30.16 0.0
30 09:15 NE 6 10.00 Fair CLR 80.6 77 89% 87 30.16 0.0
30 08:55 NE 10 10.00 Fair CLR 80.6 77 89% 87 30.16 0.0
30 08:35 NE 7 9.00 A Few Clouds FEW100 77 77 100% 78 30.15 0.0
30 08:15 N 8 10.00 Partly Cloudy SCT100 77 77 100% 78 30.15 0.0
30 07:55 N 8 10.00 Fair CLR 75.2 75.2 100% 73 30.14 0.0
30 07:35 N 7 10.00 Fair CLR 75.2 75.2 100% 73 30.13 0.0
30 07:15 N 5 9.00 Fair CLR 75.2 75.2 100% 73 30.13 0.0
30 06:55 N 7 10.00 A Few Clouds FEW006 FEW012 75.2 75.2 100% 73 30.12 0.0
30 06:35 N 7 10.00 Partly Cloudy FEW006 SCT011 SCT075 75.2 75.2 100% 73 30.12 0.0
30 06:15 N 6 9.00 A Few Clouds FEW075 77 77 100% 78 30.13 0.0
30 05:55 Calm 9.00 Fair CLR 77 77 100% 78 30.12 0.0
30 05:35 N 6 10.00 Fair CLR 77 77 100% 78 30.11 0.0
30 05:15 N 5 9.00 Fair CLR 77 77 100% 78 30.1 0.0
30 04:50 Calm 9.00 Fair CLR 75.2 75.2 100% 73 30.11 0.0
30 04:35 N 5 9.00 Fair CLR 77 77 100% 78 30.1 0.0
30 04:15 N 5 8.00 A Few Clouds FEW042 77 77 100% 78 30.11 0.0
30 03:55 N 6 9.00 Partly Cloudy FEW018 FEW026 SCT041 77 77 100% 78 30.1 0.0
30 03:35 N 6 9.00 Partly Cloudy SCT018 SCT026 77 77 100% 78 30.11 0.0
30 03:15 N 6 9.00 Fair CLR 77 77 100% 78 30.12 0.0
30 02:55 N 7 8.00 Fair CLR 77 77 100% 78 30.12 0.0
30 02:35 N 6 9.00 Fair CLR 77 77 100% 78 30.13 0.0
30 02:15 Calm 7.00 Fair CLR 75.2 75.2 100% 73 30.13 0.0
30 01:55 Calm 6.00 Fog/Mist CLR 75.2 75.2 100% 73 30.14 0.0
30 01:35 Calm 3.00 Fog/Mist CLR 77 77 100% 78 30.14 0.0
30 01:15 Calm 7.00 Fair CLR 77 77 100% 78 30.14 0.0
30 00:55 Calm 8.00 Fair CLR 75.2 75.2 100% 73 30.14 0.0
30 00:35 Calm 8.00 Fair CLR 75.2 75.2 100% 73 30.14 0.0
30 00:15 Calm 4.00 Fog/Mist CLR 75.2 75.2 100% 73 30.13 0.0
29 23:55 Calm 6.00 Fog/Mist FEW020 77 77 100% 78 30.14 0.0
29 23:35 Calm 8.00 Partly Cloudy FEW020 SCT037 SCT045 77 77 100% 78 30.15 0.0
29 23:15 Calm 9.00 Light Drizzle SCT035 BKN050 OVC060 77 77 100% 78 30.16 0.0
29 22:55 Calm 10.00 Mostly Cloudy FEW003 SCT022 BKN035 78.8 78.8 100% 83 30.16 0.0 0.24
29 22:35 Vrbl 5 G 17 0.75 Heavy Rain Fog/Mist BKN003 OVC020 77 77 100% 78 30.17 0.0
29 22:15 Calm 10.00 Partly Cloudy FEW020 SCT025 SCT037 80.6 77 89% 87 30.17 0.0
29 21:55 Calm 10.00 Mostly Cloudy SCT020 SCT025 BKN031 80.6 77 89% 87 30.17 0.0
29 21:35 Calm 10.00 Partly Cloudy SCT019 SCT026 SCT031 78.8 77 94% 83 30.16 0.0
29 21:15 Calm 10.00 Fair CLR 77 77 100% 78 30.14 0.0
29 20:55 Calm 10.00 Fair CLR 77 77 100% 78 30.13 0.0
29 20:35 Calm 10.00 Fair CLR 78.8 77 94% 83 30.12 0.0
29 20:15 Calm 10.00 Fair CLR 77 77 100% 78 30.11 0.0
29 19:55 Calm 10.00 A Few Clouds FEW017 78.8 75.2 89% 82 30.11 0.0
29 19:30 Calm 10.00 A Few Clouds FEW017 78.8 75.2 89% 82 30.12 0.0
29 19:15 Calm 10.00 Fair CLR 78.8 75.2 89% 82 30.12 0.0
29 18:55 E 7 10.00 Fair CLR 78.8 75.2 89% 82 30.12 0.0
29 18:35 E 6 10.00 Thunderstorm in Vicinity FEW018 80.6 75.2 84% 86 30.11 0.0
29 18:15 E 6 10.00 Thunderstorm in Vicinity FEW018 80.6 75.2 84% 86 30.12 0.0
29 17:55 E 6 10.00 A Few Clouds FEW020 80.6 75.2 84% 86 30.11 0.0 0.01
29 17:35 E 7 10.00 Partly Cloudy SCT019 80.6 75.2 84% 86 30.12 0.0
29 17:15 E 6 4.00 Light Drizzle Haze FEW022 SCT031 SCT044 80.6 75.2 84% 86 30.12 0.0
29 16:55 Calm 5.00 Light Drizzle Fog/Mist BKN021 OVC031 80.6 75.2 84% 86 30.12 0.0 0.06
Date Time (edt) Wind (mph) Vis. (mi.) Weather Sky Cond. Air Dwpt Max. Min. Relative Humidity Wind Chill (°F) Heat Index (°F) altimeter (in) sea level (mb) 1 hr 3 hr 6 hr
6 hour
Temperature (ºF) Pressure Precipitation (in)